Time,TemperatureF,DewpointF,PressureIn,WindDirection,WindDirectionDegrees,WindSpeedMPH,WindSpeedGustMPH,Humidity,HourlyPrecipIn,Conditions,Clouds,dailyrainin,SoftwareType,DateUTC
2013-05-28 00:01:00,63.7,63.4,29.95,SE,135,0.0,-999.0,99,-99.99,,,0.00,Acu-Link.com,2013-05-28 04:01:00,
2013-05-28 00:16:00,63.7,63.4,29.96,South,180,0.0,-999.0,99,-99.99,,,0.00,Acu-Link.com,2013-05-28 04:16:00,
2013-05-28 00:31:00,63.5,63.2,29.96,SE,135,0.0,-999.0,99,-99.99,,,0.00,Acu-Link.com,2013-05-28 04:31:00,
2013-05-28 00:46:00,63.5,63.2,29.96,SSE,157,0.0,-999.0,99,-99.99,,,0.00,Acu-Link.com,2013-05-28 04:46:00,
2013-05-28 01:02:00,63.1,62.8,29.96,SSE,157,0.0,-999.0,99,-99.99,,,0.00,Acu-Link.com,2013-05-28 05:02:00,
2013-05-28 01:17:00,63.0,62.7,29.95,South,180,0.0,-999.0,99,-99.99,,,0.00,Acu-Link.com,2013-05-28 05:17:00,
2013-05-28 01:32:00,62.8,62.5,29.95,South,180,0.0,-999.0,99,-99.99,,,0.00,Acu-Link.com,2013-05-28 05:32:00,
2013-05-28 01:47:00,62.6,62.3,29.95,SSE,157,0.0,-999.0,99,-99.99,,,0.00,Acu-Link.com,2013-05-28 05:47:00,
2013-05-28 02:02:00,62.1,61.8,29.95,SSE,157,0.0,-999.0,99,-99.99,,,0.00,Acu-Link.com,2013-05-28 06:02:00,
2013-05-28 02:17:00,61.5,61.2,29.94,South,180,0.0,-999.0,99,-99.99,,,0.00,Acu-Link.com,2013-05-28 06:17:00,
2013-05-28 02:32:00,61.0,60.7,29.95,SSE,157,0.0,-999.0,99,-99.99,,,0.00,Acu-Link.com,2013-05-28 06:32:00,
2013-05-28 02:47:00,60.8,60.5,29.95,SSE,157,0.0,-999.0,99,-99.99,,,0.00,Acu-Link.com,2013-05-28 06:47:00,
2013-05-28 03:02:00,60.4,60.1,29.93,South,180,0.0,-999.0,99,-99.99,,,0.00,Acu-Link.com,2013-05-28 07:02:00,
2013-05-28 03:18:00,60.3,60.0,29.93,South,180,0.0,-999.0,99,-99.99,,,0.00,Acu-Link.com,2013-05-28 07:18:00,
2013-05-28 03:33:00,59.9,59.6,29.93,SSE,157,0.0,-999.0,99,-99.99,,,0.00,Acu-Link.com,2013-05-28 07:33:00,
2013-05-28 03:48:00,59.4,59.1,29.94,SE,135,0.0,-999.0,99,-99.99,,,0.00,Acu-Link.com,2013-05-28 07:48:00,
2013-05-28 04:03:00,59.0,58.7,29.94,ESE,112,0.0,-999.0,99,-99.99,,,0.00,Acu-Link.com,2013-05-28 08:03:00,
2013-05-28 04:19:00,58.8,58.5,29.94,SSE,157,0.0,-999.0,99,-99.99,,,0.00,Acu-Link.com,2013-05-28 08:19:00,
2013-05-28 04:34:00,58.8,58.5,29.93,ESE,112,0.0,-999.0,99,-99.99,,,0.00,Acu-Link.com,2013-05-28 08:34:00,
2013-05-28 04:49:00,58.3,58.0,29.94,East,90,0.0,-999.0,99,-99.99,,,0.00,Acu-Link.com,2013-05-28 08:49:00,
2013-05-28 05:04:00,58.5,58.2,29.94,SE,135,0.0,-999.0,99,-99.99,,,0.00,Acu-Link.com,2013-05-28 09:04:00,
2013-05-28 05:19:00,57.9,57.6,29.95,South,180,0.0,-999.0,99,-99.99,,,0.00,Acu-Link.com,2013-05-28 09:19:00,
2013-05-28 05:34:00,57.9,57.6,29.96,NE,45,0.0,-999.0,99,-99.99,,,0.00,Acu-Link.com,2013-05-28 09:34:00,
2013-05-28 05:50:00,58.3,58.0,29.97,SSE,157,0.0,-999.0,99,-99.99,,,0.00,Acu-Link.com,2013-05-28 09:50:00,
2013-05-28 06:05:00,59.0,58.7,29.97,ESE,112,0.0,-999.0,99,-99.99,,,0.00,Acu-Link.com,2013-05-28 10:05:00,
2013-05-28 06:20:00,59.0,58.7,29.99,SE,135,0.0,-999.0,99,-99.99,,,0.00,Acu-Link.com,2013-05-28 10:20:00,
2013-05-28 06:35:00,59.0,58.7,29.99,South,180,0.0,-999.0,99,-99.99,,,0.00,Acu-Link.com,2013-05-28 10:35:00,
2013-05-28 06:50:00,59.2,58.9,29.99,ESE,112,0.0,-999.0,99,-99.99,,,0.00,Acu-Link.com,2013-05-28 10:50:00,
2013-05-28 07:05:00,59.9,59.6,29.99,NW,315,0.0,-999.0,99,-99.99,,,0.00,Acu-Link.com,2013-05-28 11:05:00,
2013-05-28 07:21:00,60.8,60.5,29.99,ESE,112,0.0,-999.0,99,-99.99,,,0.00,Acu-Link.com,2013-05-28 11:21:00,
2013-05-28 07:36:00,61.7,61.4,29.99,ESE,112,0.0,-999.0,99,-99.99,,,0.00,Acu-Link.com,2013-05-28 11:36:00,
2013-05-28 07:51:00,63.1,62.8,29.99,SW,225,0.0,-999.0,99,-99.99,,,0.00,Acu-Link.com,2013-05-28 11:51:00,
2013-05-28 08:06:00,66.4,63.7,30.00,ESE,112,1.7,-999.0,91,-99.99,,,0.00,Acu-Link.com,2013-05-28 12:06:00,
2013-05-28 08:21:00,69.4,63.0,30.00,East,90,3.2,-999.0,80,-99.99,,,0.00,Acu-Link.com,2013-05-28 12:21:00,
2013-05-28 08:36:00,70.3,62.4,30.00,SSW,202,4.7,-999.0,76,-99.99,,,0.00,Acu-Link.com,2013-05-28 12:36:00,
2013-05-28 08:51:00,71.4,62.7,30.01,SSW,202,2.2,-999.0,74,-99.99,,,0.00,Acu-Link.com,2013-05-28 12:51:00,
2013-05-28 09:06:00,73.0,63.0,30.01,East,90,2.7,-999.0,71,-99.99,,,0.00,Acu-Link.com,2013-05-28 13:06:00,
2013-05-28 09:21:00,74.5,62.8,30.01,SSE,157,4.7,-999.0,67,-99.99,,,0.00,Acu-Link.com,2013-05-28 13:21:00,
2013-05-28 09:37:00,77.7,63.6,30.02,WSW,247,1.7,-999.0,62,-99.99,,,0.00,Acu-Link.com,2013-05-28 13:37:00,
2013-05-28 09:52:00,80.6,62.9,30.02,NW,315,3.7,-999.0,55,-99.99,,,0.00,Acu-Link.com,2013-05-28 13:52:00,
2013-05-28 10:07:00,77.5,63.4,30.02,ESE,112,3.2,-999.0,62,-99.99,,,0.00,Acu-Link.com,2013-05-28 14:07:00,
2013-05-28 10:22:00,75.0,61.5,30.03,SSW,202,3.2,-999.0,63,-99.99,,,0.00,Acu-Link.com,2013-05-28 14:22:00,
2013-05-28 10:37:00,77.4,63.3,30.02,SE,135,1.7,-999.0,62,-99.99,,,0.00,Acu-Link.com,2013-05-28 14:37:00,
2013-05-28 10:52:00,78.6,64.9,30.02,West,270,1.7,-999.0,63,-99.99,,,0.00,Acu-Link.com,2013-05-28 14:52:00,
2013-05-28 11:07:00,78.8,62.3,30.01,SW,225,4.2,-999.0,57,-99.99,,,0.00,Acu-Link.com,2013-05-28 15:07:00,
2013-05-28 11:22:00,79.7,63.1,30.02,NW,315,2.7,-999.0,57,-99.99,,,0.00,Acu-Link.com,2013-05-28 15:22:00,
2013-05-28 11:37:00,80.8,63.6,30.02,SSW,202,2.7,-999.0,56,-99.99,,,0.00,Acu-Link.com,2013-05-28 15:37:00,
2013-05-28 11:53:00,80.6,62.9,30.02,NE,45,2.7,-999.0,55,-99.99,,,0.00,Acu-Link.com,2013-05-28 15:53:00,
2013-05-28 12:08:00,81.3,62.5,30.01,SE,135,2.7,-999.0,53,-99.99,,,0.00,Acu-Link.com,2013-05-28 16:08:00,
2013-05-28 12:23:00,82.0,64.2,30.00,West,270,2.2,-999.0,55,-99.99,,,0.00,Acu-Link.com,2013-05-28 16:23:00,
2013-05-28 12:38:00,82.9,62.9,30.00,NNW,337,4.2,-999.0,51,-99.99,,,0.00,Acu-Link.com,2013-05-28 16:38:00,
2013-05-28 12:53:00,84.4,62.5,29.99,SW,225,3.7,-999.0,48,-99.99,,,0.00,Acu-Link.com,2013-05-28 16:53:00,
2013-05-28 13:08:00,83.7,62.5,29.99,NNE,22,3.2,-999.0,49,-99.99,,,0.00,Acu-Link.com,2013-05-28 17:08:00,
2013-05-28 13:23:00,84.6,62.7,29.98,ENE,67,3.7,-999.0,48,-99.99,,,0.00,Acu-Link.com,2013-05-28 17:23:00,
2013-05-28 13:39:00,84.4,61.9,29.99,NNW,337,4.7,-999.0,47,-99.99,,,0.00,Acu-Link.com,2013-05-28 17:39:00,
2013-05-28 13:54:00,84.6,61.5,29.97,ESE,112,3.2,-999.0,46,-99.99,,,0.00,Acu-Link.com,2013-05-28 17:54:00,
2013-05-28 14:09:00,85.3,62.1,29.97,NNW,337,2.2,-999.0,46,-99.99,,,0.00,Acu-Link.com,2013-05-28 18:09:00,
2013-05-28 14:24:00,85.5,62.9,29.96,SSE,157,3.7,-999.0,47,-99.99,,,0.00,Acu-Link.com,2013-05-28 18:24:00,
2013-05-28 14:39:00,85.3,62.1,29.96,SW,225,6.8,-999.0,46,-99.99,,,0.00,Acu-Link.com,2013-05-28 18:39:00,
2013-05-28 14:54:00,85.8,63.2,29.96,ESE,112,3.2,-999.0,47,-99.99,,,0.00,Acu-Link.com,2013-05-28 18:54:00,
2013-05-28 15:09:00,86.0,62.2,29.95,ESE,112,4.7,-999.0,45,-99.99,,,0.00,Acu-Link.com,2013-05-28 19:09:00,
2013-05-28 15:24:00,86.0,63.4,29.96,WSW,247,4.7,-999.0,47,-99.99,,,0.00,Acu-Link.com,2013-05-28 19:24:00,
2013-05-28 15:39:00,86.4,61.2,29.96,WSW,247,8.9,-999.0,43,-99.99,,,0.00,Acu-Link.com,2013-05-28 19:39:00,
2013-05-28 15:55:00,86.4,62.5,29.96,SSW,202,5.8,-999.0,45,-99.99,,,0.00,Acu-Link.com,2013-05-28 19:55:00,
2013-05-28 16:10:00,86.2,61.7,29.96,WSW,247,4.2,-999.0,44,-99.99,,,0.00,Acu-Link.com,2013-05-28 20:10:00,
2013-05-28 16:25:00,86.0,61.5,29.95,SW,225,7.3,-999.0,44,-99.99,,,0.00,Acu-Link.com,2013-05-28 20:25:00,
2013-05-28 16:40:00,85.8,63.8,29.95,NE,45,3.7,-999.0,48,-99.99,,,0.00,Acu-Link.com,2013-05-28 20:40:00,
2013-05-28 16:55:00,85.5,61.7,29.96,NW,315,2.2,-999.0,45,-99.99,,,0.00,Acu-Link.com,2013-05-28 20:55:00,
2013-05-28 17:10:00,84.6,62.1,29.94,NE,45,1.7,-999.0,47,-99.99,,,0.00,Acu-Link.com,2013-05-28 21:10:00,
2013-05-28 17:25:00,84.7,60.3,29.94,South,180,3.2,-999.0,44,-99.99,,,0.00,Acu-Link.com,2013-05-28 21:25:00,
2013-05-28 17:40:00,86.7,60.8,29.94,NNW,337,3.2,-999.0,42,-99.99,,,0.00,Acu-Link.com,2013-05-28 21:40:00,
2013-05-28 17:55:00,85.8,62.0,29.93,ESE,112,1.7,-999.0,45,-99.99,,,0.00,Acu-Link.com,2013-05-28 21:55:00,
2013-05-28 18:11:00,85.3,61.5,29.93,ESE,112,6.3,-999.0,45,-99.99,,,0.00,Acu-Link.com,2013-05-28 22:11:00,
2013-05-28 18:26:00,84.7,60.3,29.93,ESE,112,4.2,-999.0,44,-99.99,,,0.00,Acu-Link.com,2013-05-28 22:26:00,
2013-05-28 18:41:00,84.6,61.5,29.94,WSW,247,0.0,-999.0,46,-99.99,,,0.00,Acu-Link.com,2013-05-28 22:41:00,
2013-05-28 18:56:00,83.3,60.9,29.93,South,180,2.2,-999.0,47,-99.99,,,0.00,Acu-Link.com,2013-05-28 22:56:00,
2013-05-28 19:11:00,82.6,60.3,29.93,SW,225,4.2,-999.0,47,-99.99,,,0.00,Acu-Link.com,2013-05-28 23:11:00,
2013-05-28 19:26:00,81.7,61.2,29.93,South,180,1.7,-999.0,50,-99.99,,,0.00,Acu-Link.com,2013-05-28 23:26:00,
2013-05-28 19:41:00,80.6,61.9,29.92,SSW,202,1.7,-999.0,53,-99.99,,,0.00,Acu-Link.com,2013-05-28 23:41:00,
2013-05-28 19:56:00,79.7,61.0,29.93,NE,45,0.0,-999.0,53,-99.99,,,0.00,Acu-Link.com,2013-05-28 23:56:00,
2013-05-28 20:11:00,77.7,60.7,29.93,NNW,337,0.0,-999.0,56,-99.99,,,0.00,Acu-Link.com,2013-05-29 00:11:00,
2013-05-28 20:27:00,76.5,61.1,29.93,ENE,67,0.0,-999.0,59,-99.99,,,0.00,Acu-Link.com,2013-05-29 00:27:00,
2013-05-28 20:42:00,75.4,61.0,29.93,SSW,202,0.0,-999.0,61,-99.99,,,0.00,Acu-Link.com,2013-05-29 00:42:00,
2013-05-28 20:57:00,74.1,62.0,29.94,ESE,112,0.0,-999.0,66,-99.99,,,0.00,Acu-Link.com,2013-05-29 00:57:00,
2013-05-28 21:12:00,72.3,62.0,29.94,SSE,157,0.0,-999.0,70,-99.99,,,0.00,Acu-Link.com,2013-05-29 01:12:00,
2013-05-28 21:27:00,70.9,62.9,29.94,NE,45,0.0,-999.0,76,-99.99,,,0.00,Acu-Link.com,2013-05-29 01:27:00,
2013-05-28 21:42:00,70.0,62.4,29.95,NE,45,2.2,-999.0,77,-99.99,,,0.00,Acu-Link.com,2013-05-29 01:42:00,
2013-05-28 21:58:00,69.3,61.4,29.95,SE,135,0.0,-999.0,76,-99.99,,,0.00,Acu-Link.com,2013-05-29 01:58:00,
2013-05-28 22:13:00,68.2,61.4,29.95,ESE,112,0.0,-999.0,79,-99.99,,,0.00,Acu-Link.com,2013-05-29 02:13:00,
2013-05-28 22:28:00,66.9,60.5,29.96,NNW,337,0.0,-999.0,80,-99.99,,,0.00,Acu-Link.com,2013-05-29 02:28:00,
2013-05-28 22:43:00,65.8,61.2,29.96,South,180,0.0,-999.0,85,-99.99,,,0.00,Acu-Link.com,2013-05-29 02:43:00,
2013-05-28 22:58:00,65.1,61.1,29.96,East,90,0.0,-999.0,87,-99.99,,,0.00,Acu-Link.com,2013-05-29 02:58:00,
2013-05-28 23:13:00,64.6,61.0,29.96,SSW,202,0.0,-999.0,88,-99.99,,,0.00,Acu-Link.com,2013-05-29 03:13:00,
2013-05-28 23:28:00,63.9,61.2,29.96,South,180,0.0,-999.0,91,-99.99,,,0.00,Acu-Link.com,2013-05-29 03:28:00,
2013-05-28 23:43:00,63.3,60.9,29.96,SE,135,0.0,-999.0,92,-99.99,,,0.00,Acu-Link.com,2013-05-29 03:43:00,
2013-05-28 23:58:00,62.6,60.5,29.96,NE,45,0.0,-999.0,93,-99.99,,,0.00,Acu-Link.com,2013-05-29 03:58:00,